Time;durP1;ratioP1;P1;durP2;ratioP2;P2;SDS_P1;SDS_P2;PMS_P1;PMS_P2;Temp;Humidity;BMP_temperature;BMP_pressure;BME280_temperature;BME280_humidity;BME280_pressure;Samples;Min_cycle;Max_cycle;Signal;HPM_P1;HPM_P2
2024/02/11 00:04:04;;;;;;;7.63;6.57;;;;;;;5.51;100.00;150054.38;10585980;28;20383;-73
2024/02/11 00:09:08;;;;;;;7.68;6.97;;;;;;;5.62;100.00;150081.38;10585721;28;20050;-73
2024/02/11 00:14:09;;;;;;;8.15;7.45;;;;;;;5.62;100.00;150081.38;10568006;28;20487;-73
2024/02/11 00:19:11;;;;;;;7.10;6.43;;;;;;;5.30;100.00;150001.66;10586242;28;20039;-73
2024/02/11 00:24:13;;;;;;;7.05;6.35;;;;;;;5.18;100.00;149970.78;10586083;28;20035;-72
2024/02/11 00:29:17;;;;;;;7.32;6.65;;;;;;;4.99;100.00;149923.22;10585782;28;20450;-72
2024/02/11 00:34:19;;;;;;;6.97;6.30;;;;;;;5.05;100.00;149939.97;10585154;28;20035;-73
2024/02/11 00:39:21;;;;;;;7.72;6.93;;;;;;;5.34;100.00;150011.94;10584928;28;20049;-73
2024/02/11 00:44:23;;;;;;;7.53;6.88;;;;;;;5.43;100.00;150033.81;10584041;28;20046;-72
2024/02/11 00:49:25;;;;;;;7.35;6.65;;;;;;;5.43;100.00;150035.09;10583777;28;20127;-72
2024/02/11 00:54:27;;;;;;;7.82;7.13;;;;;;;5.35;100.00;150013.22;10588368;27;20507;-74
2024/02/11 00:59:28;;;;;;;6.72;6.13;;;;;;;4.94;100.00;149911.66;10608103;27;20039;-73
2024/02/11 01:04:30;;;;;;;7.85;7.07;;;;;;;5.20;100.00;149977.22;10627058;27;20092;-72
2024/02/11 01:09:33;;;;;;;7.20;6.60;;;;;;;5.68;100.00;150096.84;10627571;28;20491;-72
2024/02/11 01:14:35;;;;;;;6.63;5.97;;;;;;;5.41;100.00;150028.69;10625937;28;20038;-73
2024/02/11 01:19:38;;;;;;;7.20;6.50;;;;;;;5.48;100.00;150046.66;10626679;28;20043;-73
2024/02/11 01:24:40;;;;;;;7.40;6.47;;;;;;;5.42;100.00;150031.25;10627671;28;20065;-74
2024/02/11 01:29:42;;;;;;;7.65;6.95;;;;;;;5.51;100.00;150054.38;10627388;28;20092;-72
2024/02/11 01:34:43;;;;;;;7.50;6.80;;;;;;;5.50;100.00;150051.84;10626414;28;20035;-73
2024/02/11 01:39:47;;;;;;;6.65;5.95;;;;;;;5.45;100.00;150040.25;10631543;27;20039;-72
2024/02/11 01:44:48;;;;;;;7.70;6.82;;;;;;;5.25;100.00;149990.09;10634450;27;20050;-73
2024/02/11 01:49:50;;;;;;;8.52;7.28;;;;;;;5.11;100.00;149952.81;10616098;27;20043;-73
2024/02/11 01:54:52;;;;;;;6.70;6.10;;;;;;;5.09;100.00;149947.66;10614255;27;20039;-72
2024/02/11 01:59:54;;;;;;;8.32;7.53;;;;;;;5.48;100.00;150047.94;10633180;27;20522;-72
2024/02/11 02:04:57;;;;;;;6.38;5.57;;;;;;;5.42;100.00;150031.25;10613937;27;20125;-72
2024/02/11 02:10:00;;;;;;;6.30;5.70;;;;;;;5.52;100.00;150058.22;10632698;27;20562;-73
2024/02/11 02:15:03;;;;;;;7.55;5.82;;;;;;;5.53;100.00;150060.84;10632159;27;20035;-72
2024/02/11 02:20:07;;;;;;;7.28;6.32;;;;;;;5.70;100.00;150101.97;10632512;27;20453;-73
2024/02/11 02:25:09;;;;;;;6.90;6.30;;;;;;;5.76;100.00;150117.44;10631970;27;20042;-72
2024/02/11 02:30:12;;;;;;;6.88;6.18;;;;;;;5.60;100.00;150076.25;10632272;27;20118;-73
2024/02/11 02:35:21;;;;;;;6.43;5.82;;;;;;;5.26;100.00;149991.38;10612982;27;20047;-72
2024/02/11 02:40:26;;;;;;;5.50;5.00;;;;;;;5.19;100.00;149974.66;10632405;27;20118;-72
2024/02/11 02:45:29;;;;;;;8.27;6.40;;;;;;;5.50;100.00;150053.13;10631542;27;20046;-72
2024/02/11 02:50:31;;;;;;;7.55;4.50;;;;;;;5.53;100.00;150059.50;10631391;27;20098;-73
2024/02/11 02:55:34;;;;;;;5.82;5.32;;;;;;;5.34;100.00;150011.94;10630887;27;20039;-72
2024/02/11 03:00:36;;;;;;;5.40;4.88;;;;;;;5.09;100.00;149948.97;10630748;27;20051;-72
2024/02/11 03:05:41;;;;;;;5.53;5.03;;;;;;;5.22;100.00;149981.06;10630482;27;20486;-72
2024/02/11 03:10:44;;;;;;;5.53;5.00;;;;;;;5.03;100.00;149933.53;10629837;27;20119;-73
2024/02/11 03:15:45;;;;;;;5.65;4.90;;;;;;;5.19;100.00;149973.41;10629785;27;20053;-73
2024/02/11 03:20:48;;;;;;;5.78;4.72;;;;;;;5.09;100.00;149947.66;10630184;27;20047;-72
2024/02/11 03:25:50;;;;;;;5.38;4.90;;;;;;;4.88;100.00;149896.25;10630483;27;20043;-72
2024/02/11 03:30:52;;;;;;;6.68;6.03;;;;;;;5.03;100.00;149933.53;10629514;27;20500;-72
2024/02/11 03:35:53;;;;;;;6.82;5.78;;;;;;;5.10;100.00;149950.25;10611362;27;20050;-72
2024/02/11 03:40:56;;;;;;;12.85;6.93;;;;;;;5.23;100.00;149983.69;10629682;27;20051;-72
2024/02/11 03:45:58;;;;;;;6.15;4.78;;;;;;;5.48;100.00;150046.66;10630233;27;20046;-72
2024/02/11 03:51:00;;;;;;;5.38;4.65;;;;;;;5.42;100.00;150031.25;10629276;27;20126;-72
2024/02/11 03:56:06;;;;;;;4.90;4.35;;;;;;;5.02;100.00;149932.25;10628185;27;20049;-72
2024/02/11 04:01:07;;;;;;;9.25;5.25;;;;;;;5.34;100.00;150010.66;10627692;27;20043;-72
2024/02/11 04:06:11;;;;;;;6.50;4.90;;;;;;;5.09;100.00;149947.66;10627654;27;20039;-72
2024/02/11 04:11:13;;;;;;;5.07;4.55;;;;;;;4.93;100.00;149909.09;10627784;27;20043;-72
2024/02/11 04:16:16;;;;;;;6.15;4.45;;;;;;;4.90;100.00;149900.09;10627425;27;20088;-72
2024/02/11 04:21:21;;;;;;;5.18;4.68;;;;;;;5.20;100.00;149977.22;10628144;27;20136;-72
2024/02/11 04:26:23;;;;;;;5.10;4.68;;;;;;;4.97;100.00;149918.13;10628211;27;20066;-72
2024/02/11 04:31:28;;;;;;;8.18;5.18;;;;;;;5.10;100.00;149951.53;10627222;27;20043;-71
2024/02/11 04:36:32;;;;;;;5.15;4.65;;;;;;;4.88;100.00;149894.97;10626784;27;20491;-72
2024/02/11 04:41:36;;;;;;;5.85;4.97;;;;;;;4.93;100.00;149909.09;10627177;27;20462;-72
2024/02/11 04:46:40;;;;;;;9.38;4.57;;;;;;;4.85;100.00;149887.25;10626947;27;20122;-72
2024/02/11 04:51:42;;;;;;;6.43;5.40;;;;;;;4.96;100.00;149916.84;10626870;27;20065;-72
2024/02/11 04:56:47;;;;;;;5.60;5.10;;;;;;;4.85;100.00;149887.25;10626557;27;20066;-72
2024/02/11 05:01:48;;;;;;;5.78;5.03;;;;;;;5.18;100.00;149972.13;10626598;27;20043;-72
2024/02/11 05:06:51;;;;;;;8.23;5.50;;;;;;;5.26;100.00;149992.63;10626760;27;20035;-72
2024/02/11 05:11:54;;;;;;;5.93;5.35;;;;;;;5.05;100.00;149938.69;10625955;27;20043;-72
2024/02/11 05:16:58;;;;;;;5.43;4.63;;;;;;;5.19;100.00;149973.41;10635304;27;20558;-73
2024/02/11 05:22:02;;;;;;;6.15;5.55;;;;;;;5.07;100.00;149943.81;10634499;27;20039;-73
2024/02/11 05:27:04;;;;;;;5.32;4.82;;;;;;;5.23;100.00;149984.97;10633985;27;20036;-72
2024/02/11 05:32:08;;;;;;;5.85;5.35;;;;;;;5.10;100.00;149951.53;10634248;27;20510;-73
2024/02/11 05:37:10;;;;;;;9.57;5.40;;;;;;;5.31;100.00;150004.22;10633710;27;20134;-72
2024/02/11 05:42:12;;;;;;;9.02;6.18;;;;;;;5.10;100.00;149951.53;10615902;27;20470;-73
2024/02/11 05:47:14;;;;;;;5.47;4.95;;;;;;;5.62;100.00;150081.38;10633140;27;20035;-72
2024/02/11 05:52:16;;;;;;;5.68;4.55;;;;;;;5.34;100.00;150010.66;10634665;27;20472;-72
2024/02/11 05:57:18;;;;;;;6.28;5.28;;;;;;;5.69;100.00;150099.41;10633578;27;20067;-72
2024/02/11 06:02:21;;;;;;;6.65;5.68;;;;;;;5.74;100.00;150112.25;10632892;27;20047;-72
2024/02/11 06:07:23;;;;;;;6.35;5.53;;;;;;;5.71;100.00;150105.84;10614931;27;20047;-72
2024/02/11 06:12:26;;;;;;;7.82;6.03;;;;;;;5.64;100.00;150087.84;10614820;27;20051;-72
2024/02/11 06:17:28;;;;;;;5.82;5.32;;;;;;;5.87;100.00;150144.41;10633932;27;20043;-72
2024/02/11 06:22:31;;;;;;;6.15;5.32;;;;;;;6.19;100.00;150226.81;10632712;27;20096;-72
2024/02/11 06:27:33;;;;;;;5.80;5.15;;;;;;;5.98;100.00;150174.09;10632605;27;20607;-72
2024/02/11 06:32:38;;;;;;;6.55;5.50;;;;;;;5.71;100.00;150104.53;10633540;27;20039;-72
2024/02/11 06:37:43;;;;;;;6.32;5.70;;;;;;;5.69;100.00;150100.69;10614883;27;20046;-71
2024/02/11 06:42:47;;;;;;;6.22;5.65;;;;;;;5.62;100.00;150081.38;10632792;27;20413;-71
2024/02/11 06:47:49;;;;;;;10.45;6.45;;;;;;;5.75;100.00;150114.81;10631959;27;20039;-71
2024/02/11 06:52:51;;;;;;;7.55;6.03;;;;;;;5.74;100.00;150112.25;10631504;27;20088;-71
2024/02/11 06:57:55;;;;;;;6.18;5.57;;;;;;;6.12;100.00;150207.53;10631658;27;20444;-71
2024/02/11 07:03:01;;;;;;;6.30;5.70;;;;;;;6.36;100.00;150268.00;10631274;27;20043;-72
2024/02/11 07:08:06;;;;;;;7.10;6.40;;;;;;;6.45;100.00;150291.16;10631089;27;20039;-72
2024/02/11 07:13:08;;;;;;;10.45;7.13;;;;;;;6.38;100.00;150274.44;10631881;27;20043;-72
2024/02/11 07:18:10;;;;;;;5.72;5.13;;;;;;;6.11;100.00;150206.25;10631793;27;20130;-72
2024/02/11 07:23:15;;;;;;;6.82;6.22;;;;;;;6.19;100.00;150225.53;10632047;27;20043;-72
2024/02/11 07:28:17;;;;;;;6.38;5.78;;;;;;;6.12;100.00;150207.53;10613297;27;20123;-71
2024/02/11 07:33:18;;;;;;;6.88;6.18;;;;;;;6.36;100.00;150269.28;10631468;27;20081;-71
2024/02/11 07:38:21;;;;;;;6.20;5.13;;;;;;;6.43;100.00;150286.03;10596117;27;20491;-71
2024/02/11 07:43:25;;;;;;;9.05;6.15;;;;;;;6.52;100.00;150309.19;10612350;27;20049;-72
2024/02/11 07:48:27;;;;;;;5.97;5.38;;;;;;;6.35;100.00;150266.72;10612730;27;20035;-72
2024/02/11 07:53:29;;;;;;;6.93;6.20;;;;;;;6.35;100.00;150266.72;10630445;27;20047;-71
2024/02/11 07:58:32;;;;;;;7.13;6.15;;;;;;;6.29;100.00;150252.56;10630316;27;20410;-72
2024/02/11 08:03:33;;;;;;;8.18;7.38;;;;;;;6.34;100.00;150262.88;10613166;27;20047;-74
2024/02/11 08:08:38;;;;;;;8.63;7.72;;;;;;;6.28;100.00;150248.69;10629294;27;20050;-71
2024/02/11 08:13:40;;;;;;;10.27;9.27;;;;;;;6.41;100.00;150282.13;10610801;27;20051;-72
2024/02/11 08:18:42;;;;;;;8.40;7.60;;;;;;;6.32;100.00;150258.97;10611415;27;20039;-73
2024/02/11 08:23:44;;;;;;;8.13;7.32;;;;;;;6.36;100.00;150269.28;10629908;27;20074;-72
2024/02/11 08:28:49;;;;;;;8.82;7.00;;;;;;;6.36;100.00;150268.00;10610914;27;20122;-73
2024/02/11 08:33:51;;;;;;;10.23;8.88;;;;;;;6.70;100.00;150355.53;10628579;27;20068;-73
2024/02/11 08:38:52;;;;;;;8.57;7.78;;;;;;;6.48;100.00;150300.19;10628072;27;20035;-73
2024/02/11 08:43:54;;;;;;;10.25;8.95;;;;;;;6.80;100.00;150381.25;10627532;27;20043;-73
2024/02/11 08:48:56;;;;;;;10.20;9.15;;;;;;;6.79;100.00;150378.69;10628118;27;20045;-73
2024/02/11 08:53:58;;;;;;;9.80;8.90;;;;;;;6.74;100.00;150365.81;10627697;27;20045;-72
2024/02/11 08:59:00;;;;;;;10.65;8.80;;;;;;;6.92;100.00;150409.59;10628302;27;20407;-73
2024/02/11 09:04:02;;;;;;;9.20;7.43;;;;;;;6.85;100.00;150392.84;10629083;27;20067;-72
2024/02/11 09:09:06;;;;;;;68.43;23.13;;;;;;;6.95;100.00;150417.28;10610248;27;20051;-72
2024/02/11 09:14:07;;;;;;;13.02;11.15;;;;;;;6.92;100.00;150409.59;10628861;28;20040;-72
2024/02/11 09:19:10;;;;;;;11.80;9.95;;;;;;;7.06;100.00;150445.66;10629072;28;20051;-71
2024/02/11 09:24:17;;;;;;;13.83;10.73;;;;;;;6.94;100.00;150416.00;10630312;28;20064;-73
2024/02/11 09:29:22;;;;;;;11.43;10.32;;;;;;;7.00;100.00;150430.22;10629561;28;20035;-72
2024/02/11 09:34:25;;;;;;;12.25;11.10;;;;;;;7.25;100.00;150494.56;10630116;28;20031;-74
2024/02/11 09:39:27;;;;;;;16.05;13.57;;;;;;;7.21;100.00;150484.25;10593841;28;20055;-72
2024/02/11 09:44:33;;;;;;;11.52;10.43;;;;;;;7.26;100.00;150495.84;10628847;28;20099;-73
2024/02/11 09:49:41;;;;;;;13.70;10.45;;;;;;;7.63;100.00;150588.63;10629195;28;20043;-73
2024/02/11 09:54:45;;;;;;;13.63;12.13;;;;;;;7.36;100.00;150521.63;10609319;28;20050;-73
2024/02/11 09:59:47;;;;;;;12.43;11.23;;;;;;;7.42;100.00;150537.06;10611708;27;20054;-73
2024/02/11 10:04:53;;;;;;;11.48;10.32;;;;;;;7.62;100.00;150586.06;10633022;27;20046;-72
2024/02/11 10:09:59;;;;;;;12.38;11.25;;;;;;;7.53;100.00;150565.44;10635493;27;20043;-72
2024/02/11 10:15:01;;;;;;;11.48;10.27;;;;;;;7.62;100.00;150586.06;10657192;27;20038;-73
2024/02/11 10:20:04;;;;;;;21.08;14.52;;;;;;;7.87;100.00;150650.44;10642802;27;20043;-73
2024/02/11 10:25:09;;;;;;;13.23;11.32;;;;;;;8.11;100.00;150709.75;10678751;27;20109;-73
2024/02/11 10:30:12;;;;;;;11.23;10.30;;;;;;;8.08;100.00;150703.28;10656478;27;20043;-74
2024/02/11 10:35:17;;;;;;;13.30;11.10;;;;;;;7.91;100.00;150659.47;10635952;27;20127;-73
2024/02/11 10:40:19;;;;;;;14.02;12.52;;;;;;;7.89;100.00;150655.59;10633871;27;20133;-74
2024/02/11 10:45:22;;;;;;;29.20;18.00;;;;;;;7.74;100.00;150618.22;10624821;27;20035;-73
2024/02/11 10:50:27;;;;;;;16.55;14.73;;;;;;;7.78;100.00;150628.53;10678289;27;20117;-73
2024/02/11 10:55:36;;;;;;;17.95;13.23;;;;;;;8.04;100.00;150692.97;10677345;27;20041;-73
2024/02/11 11:00:39;;;;;;;13.90;12.57;;;;;;;8.07;100.00;150700.72;10678265;27;20069;-73
2024/02/11 11:05:43;;;;;;;17.58;12.57;;;;;;;8.01;100.00;150686.53;10659166;27;20070;-73
2024/02/11 11:10:45;;;;;;;13.90;12.50;;;;;;;8.15;100.00;150721.34;10674766;27;20050;-73
2024/02/11 11:15:49;;;;;;;13.95;12.55;;;;;;;8.08;100.00;150704.56;10676221;27;20049;-74
2024/02/11 11:20:55;;;;;;;16.00;14.40;;;;;;;7.93;100.00;150664.63;10655869;27;20057;-73
2024/02/11 11:25:56;;;;;;;15.40;13.90;;;;;;;7.97;100.00;150676.22;10632781;27;20071;-74
2024/02/11 11:30:59;;;;;;;16.25;14.60;;;;;;;8.19;100.00;150730.31;10632148;27;20092;-72
2024/02/11 11:36:02;;;;;;;17.45;15.70;;;;;;;8.31;100.00;150761.25;10634026;27;20047;-72
2024/02/11 11:41:05;;;;;;;16.52;14.82;;;;;;;8.09;100.00;150707.13;10632060;27;20119;-73
2024/02/11 11:46:07;;;;;;;15.48;14.07;;;;;;;8.32;100.00;150763.84;10631648;27;20035;-73
2024/02/11 11:51:11;;;;;;;16.30;14.65;;;;;;;8.21;100.00;150736.78;10631787;27;20039;-74
2024/02/11 11:56:14;;;;;;;15.30;13.77;;;;;;;8.32;100.00;150765.16;10654702;27;20042;-74
2024/02/11 12:01:17;;;;;;;16.48;14.05;;;;;;;8.05;100.00;150696.81;10641428;27;20487;-72
2024/02/11 12:06:22;;;;;;;14.73;13.18;;;;;;;8.07;100.00;150702.00;10674574;27;20117;-72
2024/02/11 12:11:24;;;;;;;16.58;13.48;;;;;;;8.20;100.00;150732.94;10674014;27;20042;-75
2024/02/11 12:16:26;;;;;;;14.50;13.00;;;;;;;8.13;100.00;150716.16;10673217;27;20041;-75
2024/02/11 12:21:29;;;;;;;18.25;13.90;;;;;;;8.17;100.00;150726.47;10673552;27;20042;-73
2024/02/11 12:26:32;;;;;;;14.45;13.05;;;;;;;8.09;100.00;150707.13;10667588;27;20084;-74
2024/02/11 12:31:35;;;;;;;15.73;14.13;;;;;;;8.03;100.00;150691.69;10632027;27;20091;-73
2024/02/11 12:36:37;;;;;;;15.40;13.90;;;;;;;8.26;100.00;150748.38;10628831;27;20039;-72
2024/02/11 12:41:40;;;;;;;16.83;13.43;;;;;;;8.37;100.00;150775.47;10629156;27;20042;-73
2024/02/11 12:46:42;;;;;;;16.15;14.52;;;;;;;8.28;100.00;150753.56;10629379;27;20035;-73
2024/02/11 12:51:45;;;;;;;20.05;15.85;;;;;;;8.43;100.00;150792.25;10613610;27;20536;-74
2024/02/11 12:56:47;;;;;;;24.80;18.42;;;;;;;8.28;100.00;150754.84;10611520;27;20092;-73
2024/02/11 13:01:49;;;;;;;23.20;19.00;;;;;;;8.39;100.00;150780.66;10610034;27;20039;-72
2024/02/11 13:06:51;;;;;;;39.22;21.35;;;;;;;8.42;100.00;150789.69;10630012;27;20043;-73
2024/02/11 13:11:52;;;;;;;38.90;21.27;;;;;;;8.49;100.00;150807.72;10628292;27;20043;-72
2024/02/11 13:16:55;;;;;;;35.78;19.55;;;;;;;8.35;100.00;150771.59;10627863;28;20043;-74
2024/02/11 13:21:57;;;;;;;27.42;17.50;;;;;;;8.13;100.00;150714.88;10627866;28;20047;-72
2024/02/11 13:26:59;;;;;;;32.60;19.15;;;;;;;8.25;100.00;150745.81;10623243;28;20065;-74
2024/02/11 13:32:01;;;;;;;32.55;17.88;;;;;;;8.29;100.00;150756.13;10629443;28;20448;-72
2024/02/11 13:37:03;;;;;;;23.35;15.35;;;;;;;8.14;100.00;150718.72;10632222;27;20031;-74
2024/02/11 13:42:05;;;;;;;30.23;15.82;;;;;;;8.04;100.00;150692.97;10635633;27;20047;-73
2024/02/11 13:47:07;;;;;;;28.45;15.18;;;;;;;8.13;100.00;150714.88;10634807;27;20062;-74
2024/02/11 13:52:13;;;;;;;23.35;13.80;;;;;;;8.01;100.00;150686.53;10635930;27;20111;-73
2024/02/11 13:57:18;;;;;;;17.88;11.25;;;;;;;8.05;100.00;150696.81;10635707;27;20039;-73
2024/02/11 14:02:19;;;;;;;18.20;11.60;;;;;;;7.85;100.00;150645.31;10635746;27;20047;-73
2024/02/11 14:07:22;;;;;;;12.18;10.32;;;;;;;7.83;100.00;150640.13;10636122;27;20050;-72
2024/02/11 14:12:25;;;;;;;13.18;11.07;;;;;;;7.80;100.00;150632.44;10634620;27;20058;-73
2024/02/11 14:17:28;;;;;;;11.55;9.27;;;;;;;7.93;100.00;150664.63;10634106;27;20118;-72
2024/02/11 14:22:30;;;;;;;11.23;8.95;;;;;;;8.01;100.00;150686.53;10635161;27;20047;-73
2024/02/11 14:27:32;;;;;;;10.00;8.35;;;;;;;7.75;100.00;150619.53;10634370;27;20122;-73
2024/02/11 14:32:33;;;;;;;12.20;8.27;;;;;;;7.79;100.00;150629.81;10634089;27;20050;-73
2024/02/11 14:37:37;;;;;;;8.68;7.45;;;;;;;7.86;100.00;150646.59;10634775;27;20043;-73
2024/02/11 14:42:40;;;;;;;8.70;7.03;;;;;;;7.90;100.00;150656.91;10633619;27;20047;-73
2024/02/11 14:47:43;;;;;;;11.20;8.50;;;;;;;8.01;100.00;150686.53;10635825;27;20096;-74
2024/02/11 14:52:46;;;;;;;9.45;7.88;;;;;;;7.95;100.00;150671.06;10636474;27;20049;-73
2024/02/11 14:57:50;;;;;;;10.88;8.30;;;;;;;7.97;100.00;150674.91;10636442;27;20049;-72
2024/02/11 15:02:53;;;;;;;8.23;6.65;;;;;;;7.98;100.00;150677.53;10636734;27;20051;-73
2024/02/11 15:07:55;;;;;;;9.23;8.18;;;;;;;7.89;100.00;150655.59;10632809;27;20043;-73
2024/02/11 15:12:58;;;;;;;8.40;6.50;;;;;;;7.98;100.00;150677.53;10633818;27;20046;-73
2024/02/11 15:18:00;;;;;;;9.27;7.50;;;;;;;7.90;100.00;150658.19;10633820;27;20122;-74
2024/02/11 15:23:02;;;;;;;9.15;7.05;;;;;;;7.79;100.00;150631.13;10635666;27;20193;-72
2024/02/11 15:28:05;;;;;;;8.15;6.40;;;;;;;7.93;100.00;150665.91;10633139;27;20134;-74
2024/02/11 15:33:12;;;;;;;9.57;6.43;;;;;;;7.98;100.00;150678.81;10631111;27;20043;-73
2024/02/11 15:38:14;;;;;;;8.40;7.07;;;;;;;8.00;100.00;150682.66;10631358;27;20031;-72
2024/02/11 15:43:16;;;;;;;8.50;7.10;;;;;;;8.04;100.00;150692.97;10631529;27;20036;-73
2024/02/11 15:48:19;;;;;;;8.98;7.45;;;;;;;8.04;100.00;150692.97;10630123;27;20035;-73
2024/02/11 15:53:25;;;;;;;7.32;6.35;;;;;;;7.87;100.00;150650.44;10631626;27;20134;-73
2024/02/11 15:58:27;;;;;;;11.23;6.88;;;;;;;7.93;100.00;150665.91;10631682;27;20518;-72
2024/02/11 16:03:29;;;;;;;9.18;6.47;;;;;;;7.92;100.00;150662.03;10630976;27;20078;-73
2024/02/11 16:08:33;;;;;;;7.60;6.38;;;;;;;7.92;100.00;150663.31;10631426;27;20126;-72
2024/02/11 16:13:35;;;;;;;10.85;6.45;;;;;;;7.80;100.00;150632.44;10631750;27;20435;-73
2024/02/11 16:18:37;;;;;;;9.20;7.15;;;;;;;7.92;100.00;150662.03;10635012;27;20043;-74
2024/02/11 16:23:40;;;;;;;9.90;7.43;;;;;;;7.72;100.00;150611.81;10632483;27;20048;-74
2024/02/11 16:28:45;;;;;;;8.75;6.78;;;;;;;7.57;100.00;150575.75;10633946;27;20102;-74
2024/02/11 16:33:48;;;;;;;9.98;7.55;;;;;;;7.75;100.00;150619.53;10635720;27;20505;-74
2024/02/11 16:38:51;;;;;;;8.93;7.15;;;;;;;7.92;100.00;150663.31;10632226;27;20380;-72
2024/02/11 16:43:53;;;;;;;8.25;6.82;;;;;;;7.92;100.00;150663.31;10631199;27;20125;-72
2024/02/11 16:48:55;;;;;;;7.10;5.18;;;;;;;7.98;100.00;150677.53;10632155;27;20039;-73
2024/02/11 16:53:57;;;;;;;6.85;6.05;;;;;;;7.95;100.00;150669.78;10630519;27;20519;-73
2024/02/11 16:58:59;;;;;;;7.70;5.75;;;;;;;7.91;100.00;150659.47;10627378;27;20035;-73
2024/02/11 17:04:05;;;;;;;9.48;6.40;;;;;;;7.89;100.00;150654.31;10626804;27;20043;-73
2024/02/11 17:09:09;;;;;;;5.53;4.05;;;;;;;7.78;100.00;150628.53;10627170;27;20092;-73
2024/02/11 17:14:12;;;;;;;5.10;4.60;;;;;;;7.90;100.00;150658.19;10628121;27;20075;-73
2024/02/11 17:19:18;;;;;;;3.92;3.30;;;;;;;7.89;100.00;150654.31;10631157;27;20126;-72
2024/02/11 17:24:21;;;;;;;3.42;2.30;;;;;;;7.89;100.00;150655.59;10630217;28;20039;-74
2024/02/11 17:29:23;;;;;;;1.55;1.30;;;;;;;7.90;100.00;150658.19;10630119;28;20032;-73
2024/02/11 17:34:26;;;;;;;1.17;1.08;;;;;;;7.95;100.00;150669.78;10628063;28;20050;-73
2024/02/11 17:39:29;;;;;;;1.38;1.27;;;;;;;7.83;100.00;150640.13;10611558;28;20047;-75
2024/02/11 17:44:33;;;;;;;1.23;1.00;;;;;;;8.04;100.00;150694.25;10630195;28;20055;-74
2024/02/11 17:49:35;;;;;;;1.38;1.15;;;;;;;8.01;100.00;150685.22;10631221;27;20131;-76
2024/02/11 17:54:38;;;;;;;1.52;1.20;;;;;;;7.89;100.00;150654.31;10632163;27;20076;-76
2024/02/11 17:59:43;;;;;;;1.30;1.10;;;;;;;7.90;100.00;150658.19;10632794;28;20054;-74
2024/02/11 18:04:45;;;;;;;1.40;1.30;;;;;;;7.89;100.00;150655.59;10629743;28;20080;-74
2024/02/11 18:09:48;;;;;;;1.13;1.00;;;;;;;7.81;100.00;150636.28;10628521;28;20043;-75
2024/02/11 18:14:50;;;;;;;1.48;1.35;;;;;;;7.91;100.00;150660.75;10630126;27;20513;-74
2024/02/11 18:19:53;;;;;;;1.20;1.10;;;;;;;7.88;100.00;150653.03;10632119;27;20037;-74
2024/02/11 18:24:55;;;;;;;1.30;1.20;;;;;;;7.88;100.00;150651.72;10637101;27;20055;-73
2024/02/11 18:29:58;;;;;;;1.30;1.20;;;;;;;7.75;100.00;150620.84;10636391;27;20056;-73
2024/02/11 18:35:00;;;;;;;2.75;0.80;;;;;;;7.79;100.00;150631.13;10633926;27;20487;-74
2024/02/11 18:40:05;;;;;;;1.13;1.02;;;;;;;7.73;100.00;150614.38;10633607;27;20451;-75
2024/02/11 18:45:09;;;;;;;1.60;1.35;;;;;;;7.80;100.00;150632.44;10634908;27;20047;-75
2024/02/11 18:50:12;;;;;;;1.13;1.02;;;;;;;7.79;100.00;150631.13;10636582;27;20102;-75
2024/02/11 18:55:14;;;;;;;0.88;0.88;;;;;;;7.70;100.00;150606.63;10633177;27;20075;-75
2024/02/11 19:00:18;;;;;;;1.33;1.10;;;;;;;7.70;100.00;150607.97;10635576;27;20530;-73
2024/02/11 19:05:20;;;;;;;1.10;1.00;;;;;;;7.64;100.00;150591.19;10635770;27;20046;-74
2024/02/11 19:10:24;;;;;;;1.40;1.20;;;;;;;7.60;100.00;150582.16;10635777;27;20499;-74
2024/02/11 19:15:26;;;;;;;1.70;0.90;;;;;;;7.63;100.00;150589.91;10636145;27;20103;-74
2024/02/11 19:20:28;;;;;;;1.50;1.25;;;;;;;7.67;100.00;150600.22;10635663;27;20051;-74
2024/02/11 19:25:30;;;;;;;1.45;1.20;;;;;;;7.60;100.00;150582.16;10636747;27;20095;-74
2024/02/11 19:30:33;;;;;;;1.52;1.42;;;;;;;7.57;100.00;150574.47;10634131;27;20515;-74
2024/02/11 19:35:36;;;;;;;1.50;1.38;;;;;;;7.64;100.00;150592.47;10636649;27;20507;-75
2024/02/11 19:40:38;;;;;;;2.78;1.27;;;;;;;7.68;100.00;150601.50;10635937;27;20051;-74
2024/02/11 19:45:41;;;;;;;1.50;1.40;;;;;;;7.66;100.00;150596.31;10632337;27;20047;-75
2024/02/11 19:50:43;;;;;;;1.50;1.23;;;;;;;7.67;100.00;150600.22;10633888;27;20051;-74
2024/02/11 19:55:47;;;;;;;1.83;1.20;;;;;;;7.66;100.00;150597.66;10633246;27;20096;-74
2024/02/11 20:00:49;;;;;;;1.27;1.17;;;;;;;7.61;100.00;150583.44;10635763;27;20555;-74
2024/02/11 20:05:52;;;;;;;1.40;1.08;;;;;;;7.64;100.00;150591.19;10633082;27;20039;-75
2024/02/11 20:10:55;;;;;;;1.45;0.95;;;;;;;7.60;100.00;150582.16;10635560;27;20062;-75
2024/02/11 20:15:58;;;;;;;1.35;1.00;;;;;;;7.59;100.00;150580.88;10631788;27;20044;-75
2024/02/11 20:21:02;;;;;;;3.95;1.75;;;;;;;7.50;100.00;150556.41;10633175;27;20047;-75
2024/02/11 20:26:07;;;;;;;2.70;1.40;;;;;;;7.51;100.00;150558.97;10615251;27;20042;-74
2024/02/11 20:31:10;;;;;;;3.08;1.50;;;;;;;7.52;100.00;150562.81;10632152;27;20111;-74
2024/02/11 20:36:13;;;;;;;1.42;1.20;;;;;;;7.45;100.00;150544.81;10631551;27;20039;-74
2024/02/11 20:41:19;;;;;;;1.23;1.02;;;;;;;7.48;100.00;150552.56;10632749;27;20514;-76
2024/02/11 20:46:21;;;;;;;2.17;1.43;;;;;;;7.56;100.00;150573.13;10631071;27;20485;-75
2024/02/11 20:51:30;;;;;;;3.80;1.40;;;;;;;7.46;100.00;150547.38;10632107;27;20051;-74
2024/02/11 20:56:33;;;;;;;2.35;1.88;;;;;;;7.51;100.00;150560.25;10632157;27;20054;-75
2024/02/11 21:01:35;;;;;;;4.10;1.85;;;;;;;7.54;100.00;150568.00;10630759;27;20047;-76
2024/02/11 21:06:37;;;;;;;1.58;1.00;;;;;;;7.46;100.00;150547.38;10629967;27;20502;-74
2024/02/11 21:11:39;;;;;;;1.50;1.40;;;;;;;7.39;100.00;150528.03;10629364;27;20136;-75
2024/02/11 21:16:43;;;;;;;2.22;1.58;;;;;;;7.37;100.00;150522.91;10627384;27;20039;-75
2024/02/11 21:21:45;;;;;;;1.15;1.05;;;;;;;7.54;100.00;150566.72;10626447;27;20058;-74
2024/02/11 21:26:47;;;;;;;2.65;1.35;;;;;;;7.50;100.00;150557.69;10625168;28;20117;-74
2024/02/11 21:31:51;;;;;;;2.28;1.30;;;;;;;7.48;100.00;150552.56;10626682;27;20063;-74
2024/02/11 21:36:53;;;;;;;1.33;1.23;;;;;;;7.56;100.00;150573.13;10625775;27;20044;-75
2024/02/11 21:41:58;;;;;;;1.30;1.20;;;;;;;7.47;100.00;150548.66;10625983;28;20047;-74
2024/02/11 21:47:01;;;;;;;1.38;1.13;;;;;;;7.59;100.00;150580.88;10628154;27;20043;-73
2024/02/11 21:52:03;;;;;;;1.38;1.10;;;;;;;7.47;100.00;150548.66;10628382;27;20467;-75
2024/02/11 21:57:06;;;;;;;1.30;1.10;;;;;;;7.47;100.00;150548.66;10631965;27;20126;-73
2024/02/11 22:02:08;;;;;;;1.50;1.23;;;;;;;7.49;100.00;150555.13;10634636;27;20096;-73
2024/02/11 22:07:12;;;;;;;4.25;1.77;;;;;;;7.42;100.00;150537.06;10634828;27;20055;-74
2024/02/11 22:12:14;;;;;;;2.30;1.50;;;;;;;7.39;100.00;150529.34;10633146;27;20655;-74
2024/02/11 22:17:18;;;;;;;4.03;1.73;;;;;;;7.42;100.00;150535.78;10633764;27;20493;-75
2024/02/11 22:22:20;;;;;;;1.95;1.42;;;;;;;7.42;100.00;150535.78;10632537;27;20046;-74
2024/02/11 22:27:28;;;;;;;2.45;1.50;;;;;;;7.42;100.00;150535.78;10633644;27;20039;-74
2024/02/11 22:32:30;;;;;;;1.60;1.38;;;;;;;7.37;100.00;150522.91;10632897;27;20513;-74
2024/02/11 22:37:33;;;;;;;1.80;1.50;;;;;;;7.41;100.00;150534.50;10632243;27;20403;-73
2024/02/11 22:42:35;;;;;;;3.10;1.00;;;;;;;7.36;100.00;150520.34;10631211;27;20047;-74
2024/02/11 22:47:39;;;;;;;1.40;1.05;;;;;;;7.38;100.00;150526.75;10630784;27;20036;-73
2024/02/11 22:52:41;;;;;;;2.00;1.20;;;;;;;7.38;100.00;150526.75;10631736;27;20043;-74
2024/02/11 22:57:43;;;;;;;1.25;1.15;;;;;;;7.32;100.00;150512.59;10630949;27;20042;-74
2024/02/11 23:02:45;;;;;;;1.90;1.23;;;;;;;7.34;100.00;150517.75;10629140;27;20051;-74
2024/02/11 23:07:47;;;;;;;1.85;1.02;;;;;;;7.36;100.00;150521.63;10628651;27;20469;-74